createdAt,value
2022-10-27T00:00:53.413Z,9.97
2022-10-27T00:03:20.635Z,38.87
2022-10-27T00:05:48.503Z,13.83
2022-10-27T00:08:17.571Z,8.10
2022-10-27T00:10:45.281Z,10.43
2022-10-27T00:13:15.521Z,19.13
2022-10-27T00:15:42.639Z,10.37
2022-10-27T00:18:11.875Z,10.30
2022-10-27T00:20:39.053Z,13.03
2022-10-27T00:23:06.547Z,13.90
2022-10-27T00:25:33.751Z,8.53
2022-10-27T00:28:00.909Z,9.10
2022-10-27T00:30:28.212Z,9.87
2022-10-27T00:32:55.327Z,10.43
2022-10-27T00:35:22.595Z,9.30
2022-10-27T00:37:50.073Z,9.83
2022-10-27T00:40:17.445Z,6.73
2022-10-27T00:42:44.568Z,9.10
2022-10-27T00:45:11.689Z,10.03
2022-10-27T00:47:39.417Z,12.00
2022-10-27T00:50:09.195Z,18.70
2022-10-27T00:52:56.950Z,7.07
2022-10-27T00:55:30.827Z,20.33
2022-10-27T00:58:00.592Z,13.50
2022-10-27T01:00:27.779Z,6.30
2022-10-27T01:02:55.664Z,15.33
2022-10-27T01:05:25.591Z,6.70
2022-10-27T01:07:57.852Z,10.77
2022-10-27T01:10:26.623Z,12.60
2022-10-27T01:12:55.677Z,10.57
2022-10-27T01:15:35.746Z,8.63
2022-10-27T01:18:32.574Z,16.17
2022-10-27T01:21:29.107Z,8.80
2022-10-27T01:23:59.293Z,14.07
2022-10-27T01:26:50.976Z,7.57
2022-10-27T01:29:33.076Z,7.50
2022-10-27T01:32:09.106Z,10.00
2022-10-27T01:34:47.261Z,11.17
2022-10-27T01:37:22.607Z,13.63
2022-10-27T01:40:02.258Z,6.50
2022-10-27T01:42:54.788Z,9.07
2022-10-27T01:45:29.679Z,6.33
2022-10-27T01:47:57.925Z,7.70
2022-10-27T01:50:45.299Z,6.93
2022-10-27T01:53:21.857Z,6.33
2022-10-27T01:56:21.116Z,9.43
2022-10-27T01:59:25.653Z,4.67
2022-10-27T02:02:33.265Z,9.97
2022-10-27T02:05:09.895Z,7.70
2022-10-27T02:07:54.408Z,13.13
2022-10-27T02:10:40.934Z,4.83
2022-10-27T02:13:09.646Z,11.83
2022-10-27T02:15:47.239Z,8.90
2022-10-27T02:18:24.563Z,4.63
2022-10-27T02:20:56.710Z,9.80
2022-10-27T02:23:24.220Z,16.03
2022-10-27T02:26:19.501Z,9.87
2022-10-27T02:28:55.787Z,10.33
2022-10-27T02:31:31.738Z,8.07
2022-10-27T02:33:59.860Z,11.23
2022-10-27T02:36:27.452Z,7.87
2022-10-27T02:38:54.560Z,5.40
2022-10-27T02:41:21.817Z,14.63
2022-10-27T02:43:48.926Z,8.87
2022-10-27T02:46:15.999Z,8.23
2022-10-27T02:48:43.187Z,9.60
2022-10-27T02:51:11.769Z,10.80
2022-10-27T02:53:38.868Z,13.27
2022-10-27T02:56:07.502Z,7.77
2022-10-27T02:58:35.043Z,5.47
2022-10-27T03:01:02.639Z,10.00
2022-10-27T03:03:29.887Z,7.27
2022-10-27T03:05:57.058Z,20.13
2022-10-27T03:08:24.210Z,8.33
2022-10-27T03:10:51.365Z,11.73
2022-10-27T03:13:18.510Z,15.63
2022-10-27T03:15:46.051Z,9.23
2022-10-27T03:18:13.761Z,14.63
2022-10-27T03:20:40.922Z,9.57
2022-10-27T03:23:08.003Z,7.67
2022-10-27T03:25:37.391Z,10.63
2022-10-27T03:28:04.631Z,8.60
2022-10-27T03:30:31.716Z,15.50
2022-10-27T03:32:58.882Z,9.07
2022-10-27T03:35:26.017Z,13.77
2022-10-27T03:38:00.257Z,8.33
2022-10-27T03:40:28.695Z,12.20
2022-10-27T03:42:59.013Z,7.77
2022-10-27T03:45:27.682Z,10.50
2022-10-27T03:48:10.646Z,7.70
2022-10-27T03:50:38.370Z,6.93
2022-10-27T03:53:06.563Z,8.53
2022-10-27T03:55:33.828Z,10.80
2022-10-27T03:58:01.113Z,12.70
2022-10-27T04:00:33.899Z,11.70
2022-10-27T04:03:01.101Z,7.80
2022-10-27T04:05:28.244Z,13.87
2022-10-27T04:07:55.293Z,8.07
2022-10-27T04:10:22.425Z,9.63
2022-10-27T04:12:51.454Z,9.57
2022-10-27T04:15:20.347Z,7.50
2022-10-27T04:17:47.813Z,5.77
2022-10-27T04:20:15.262Z,8.80
2022-10-27T04:22:42.431Z,6.93
2022-10-27T04:25:09.662Z,6.10
2022-10-27T04:27:36.921Z,8.83
2022-10-27T04:30:04.436Z,10.30
2022-10-27T04:32:31.565Z,6.23
2022-10-27T04:34:58.641Z,8.97
2022-10-27T04:37:26.601Z,6.20
2022-10-27T04:39:53.722Z,6.40
2022-10-27T04:42:20.841Z,12.10
2022-10-27T04:44:47.936Z,9.30
2022-10-27T04:47:15.117Z,9.97
2022-10-27T04:49:42.259Z,8.70
2022-10-27T04:52:09.446Z,11.23
2022-10-27T04:54:36.566Z,11.07
2022-10-27T04:57:03.683Z,12.30
2022-10-27T04:59:30.730Z,8.17
2022-10-27T05:01:57.912Z,9.07
2022-10-27T05:04:25.128Z,16.37
2022-10-27T05:06:52.228Z,13.97
2022-10-27T05:09:19.383Z,15.67
2022-10-27T05:11:46.444Z,12.07
2022-10-27T05:14:14.675Z,13.87
2022-10-27T05:16:41.761Z,11.23
2022-10-27T05:19:09.104Z,9.03
2022-10-27T05:21:36.183Z,14.13
2022-10-27T05:24:03.490Z,13.87
2022-10-27T05:26:32.929Z,11.80
2022-10-27T05:29:02.707Z,12.80
2022-10-27T05:31:29.847Z,10.17
2022-10-27T05:33:57.014Z,11.30
2022-10-27T05:36:24.251Z,8.70
2022-10-27T05:38:51.444Z,14.27
2022-10-27T05:41:19.046Z,12.23
2022-10-27T05:43:46.178Z,11.20
2022-10-27T05:46:13.280Z,8.30
2022-10-27T05:48:40.394Z,10.67
2022-10-27T05:51:08.296Z,7.83
2022-10-27T05:53:35.371Z,7.67
2022-10-27T05:56:02.502Z,8.23
2022-10-27T05:58:29.655Z,7.97
2022-10-27T06:01:00.097Z,8.53
2022-10-27T06:03:27.456Z,7.83
2022-10-27T06:05:54.999Z,8.93
2022-10-27T06:08:22.199Z,12.27
2022-10-27T06:10:49.241Z,12.13
2022-10-27T06:13:16.364Z,11.57
2022-10-27T06:18:13.276Z,11.10
2022-10-27T06:20:41.970Z,8.37
2022-10-27T06:23:09.116Z,7.17
2022-10-27T06:25:36.208Z,10.60
2022-10-27T06:28:03.370Z,7.83
2022-10-27T06:30:30.693Z,8.00
2022-10-27T06:32:57.874Z,13.07
2022-10-27T06:35:24.995Z,8.57
2022-10-27T06:37:52.097Z,9.33
2022-10-27T06:40:20.779Z,8.73
2022-10-27T06:43:07.574Z,9.53
2022-10-27T06:45:35.919Z,11.83
2022-10-27T06:48:03.732Z,14.03
2022-10-27T06:50:31.691Z,14.73
2022-10-27T06:52:59.160Z,10.70
2022-10-27T06:55:26.238Z,9.80
2022-10-27T06:57:53.840Z,11.37
2022-10-27T07:00:21.846Z,8.83
2022-10-27T07:02:49.408Z,10.93
2022-10-27T07:05:17.038Z,8.63
2022-10-27T07:07:49.006Z,12.20
2022-10-27T07:10:17.453Z,11.47
2022-10-27T07:12:55.421Z,8.77
2022-10-27T07:15:23.625Z,10.57
2022-10-27T07:17:58.527Z,10.37
2022-10-27T07:20:27.218Z,10.60
2022-10-27T07:22:54.427Z,14.53
2022-10-27T07:25:21.642Z,10.07
2022-10-27T07:27:54.817Z,12.40
2022-10-27T07:30:24.909Z,9.50
2022-10-27T07:32:52.035Z,10.80
2022-10-27T07:35:19.105Z,10.17
2022-10-27T07:37:47.163Z,15.90
2022-10-27T07:40:16.210Z,8.80
2022-10-27T07:42:47.756Z,13.30
2022-10-27T07:45:16.610Z,8.83
2022-10-27T07:47:49.487Z,12.63
2022-10-27T07:50:18.407Z,20.77
2022-10-27T07:52:49.435Z,8.27
2022-10-27T07:55:19.351Z,9.93
2022-10-27T07:57:46.823Z,11.03
2022-10-27T08:00:16.263Z,10.30
2022-10-27T08:02:44.555Z,10.23
2022-10-27T08:05:11.951Z,13.13
2022-10-27T08:07:39.088Z,12.13
2022-10-27T08:10:06.676Z,14.13
2022-10-27T08:12:34.413Z,18.33
2022-10-27T08:15:01.543Z,9.70
2022-10-27T08:17:30.216Z,11.50
2022-10-27T08:19:57.412Z,13.37
2022-10-27T08:22:24.699Z,10.47
2022-10-27T08:24:51.855Z,9.40
2022-10-27T08:27:19.027Z,10.30
2022-10-27T08:29:46.113Z,15.30
2022-10-27T08:32:13.171Z,11.40
2022-10-27T08:34:40.528Z,9.93
2022-10-27T08:37:07.983Z,12.93
2022-10-27T08:39:35.080Z,27.00
2022-10-27T08:42:09.340Z,18.73
2022-10-27T08:45:21.444Z,14.20
2022-10-27T08:47:48.821Z,10.53
2022-10-27T08:50:22.756Z,12.33
2022-10-27T08:52:52.330Z,14.30
2022-10-27T08:55:28.946Z,10.57
2022-10-27T08:58:25.015Z,10.47
2022-10-27T09:01:11.511Z,12.27
2022-10-27T09:03:56.641Z,19.37
2022-10-27T09:06:42.532Z,19.57
2022-10-27T09:09:28.906Z,14.27
2022-10-27T09:12:21.385Z,25.43
2022-10-27T09:15:16.222Z,24.20
2022-10-27T09:17:56.520Z,37.50
2022-10-27T09:20:38.456Z,31.40
2022-10-27T09:23:11.838Z,29.30
2022-10-27T09:25:41.353Z,34.50
2022-10-27T09:28:18.985Z,24.77
2022-10-27T09:30:49.834Z,18.00
2022-10-27T09:33:20.680Z,30.10
2022-10-27T09:35:50.890Z,17.23
2022-10-27T09:38:24.461Z,22.40
2022-10-27T09:40:52.455Z,21.20
2022-10-27T09:43:22.091Z,16.90
2022-10-27T09:46:00.822Z,23.00
2022-10-27T09:48:34.859Z,21.70
2022-10-27T09:51:17.855Z,15.10
2022-10-27T09:53:51.274Z,16.43
2022-10-27T09:56:29.032Z,14.97
2022-10-27T09:59:00.874Z,21.77
2022-10-27T10:01:35.512Z,14.80
2022-10-27T10:04:20.334Z,21.53
2022-10-27T10:07:01.917Z,13.30
2022-10-27T10:09:42.378Z,18.80
2022-10-27T10:12:16.444Z,19.30
2022-10-27T10:14:47.601Z,11.60
2022-10-27T10:17:28.585Z,11.47
2022-10-27T10:19:56.691Z,18.60
2022-10-27T10:22:30.240Z,11.70
2022-10-27T10:25:06.784Z,14.77
2022-10-27T10:27:35.082Z,16.60
2022-10-27T10:30:05.361Z,12.97
2022-10-27T10:32:37.794Z,18.93
2022-10-27T10:35:41.016Z,8.13
2022-10-27T10:38:27.216Z,16.70
2022-10-27T10:41:03.647Z,9.20
2022-10-27T10:43:31.308Z,12.77
2022-10-27T10:45:59.488Z,9.63
2022-10-27T10:48:42.119Z,12.83
2022-10-27T10:51:10.869Z,18.13
2022-10-27T10:53:50.158Z,17.60
2022-10-27T10:56:26.901Z,10.30
2022-10-27T10:59:15.563Z,13.80
2022-10-27T11:01:47.434Z,18.03
2022-10-27T11:04:21.054Z,15.10
2022-10-27T11:07:04.265Z,16.23
2022-10-27T11:09:55.844Z,10.43
2022-10-27T11:12:43.019Z,11.60
2022-10-27T11:15:25.832Z,10.57
2022-10-27T11:17:58.099Z,14.33
2022-10-27T11:20:29.241Z,12.63
2022-10-27T11:22:57.536Z,13.57
2022-10-27T11:25:29.246Z,12.37
2022-10-27T11:28:04.550Z,11.90
2022-10-27T11:30:36.751Z,14.37
2022-10-27T11:33:15.527Z,7.57
2022-10-27T11:36:16.288Z,10.90
2022-10-27T11:39:09.936Z,9.10
2022-10-27T11:41:54.716Z,8.60
2022-10-27T11:44:24.527Z,10.07
2022-10-27T11:46:55.000Z,8.73
2022-10-27T11:49:36.562Z,8.47
2022-10-27T11:52:29.110Z,10.90
2022-10-27T11:54:57.526Z,9.50
2022-10-27T11:57:45.655Z,11.83
2022-10-27T12:00:22.680Z,10.00
2022-10-27T12:06:33.274Z,10.07
2022-10-27T12:09:28.091Z,9.73
2022-10-27T12:12:05.094Z,8.60
2022-10-27T12:14:53.425Z,9.10
2022-10-27T12:17:32.905Z,6.13
2022-10-27T12:20:03.601Z,6.90
2022-10-27T12:23:06.115Z,11.13
2022-10-27T12:25:35.023Z,8.40
2022-10-27T12:28:05.576Z,8.27
2022-10-27T12:30:33.027Z,11.23
2022-10-27T12:33:39.805Z,6.90
2022-10-27T12:36:16.836Z,11.33
2022-10-27T12:39:03.995Z,8.23
2022-10-27T12:41:41.570Z,7.17
2022-10-27T12:44:20.992Z,8.20
2022-10-27T12:47:12.166Z,8.03
2022-10-27T12:50:12.173Z,10.80
2022-10-27T12:53:09.069Z,7.27
2022-10-27T12:55:37.228Z,12.27
2022-10-27T12:58:17.945Z,8.33
2022-10-27T13:00:52.291Z,8.80
2022-10-27T13:03:46.411Z,7.57
2022-10-27T13:06:13.505Z,7.80
2022-10-27T13:09:10.210Z,9.77
2022-10-27T13:12:08.354Z,9.23
2022-10-27T13:14:54.014Z,9.07
2022-10-27T13:17:36.224Z,7.17
2022-10-27T13:20:24.779Z,7.33
2022-10-27T13:23:02.150Z,5.70
2022-10-27T13:25:41.714Z,8.40
2022-10-27T13:28:37.096Z,5.37
2022-10-27T13:31:23.250Z,6.07
2022-10-27T13:34:18.765Z,6.70
2022-10-27T13:36:46.549Z,8.20
2022-10-27T13:39:13.690Z,6.67
2022-10-27T13:42:06.251Z,7.13
2022-10-27T13:44:41.218Z,10.40
2022-10-27T13:47:08.268Z,6.83
2022-10-27T13:49:42.309Z,5.47
2022-10-27T13:52:15.622Z,7.27
2022-10-27T13:55:02.115Z,7.30
2022-10-27T13:57:59.627Z,7.73
2022-10-27T14:00:47.727Z,9.30
2022-10-27T14:03:36.417Z,5.60
2022-10-27T14:06:30.337Z,6.93
2022-10-27T14:09:12.482Z,10.10
2022-10-27T14:11:47.972Z,11.10
2022-10-27T14:14:24.836Z,6.77
2022-10-27T14:16:53.059Z,9.83
2022-10-27T14:19:25.528Z,6.43
2022-10-27T14:21:57.263Z,10.93
2022-10-27T14:24:34.650Z,5.23
2022-10-27T14:27:04.023Z,7.90
2022-10-27T14:29:33.614Z,6.43
2022-10-27T14:32:36.824Z,6.03
2022-10-27T14:35:36.364Z,6.83
2022-10-27T14:38:04.465Z,8.47
2022-10-27T14:40:39.639Z,11.00
2022-10-27T14:43:17.989Z,5.50
2022-10-27T14:45:46.655Z,8.43
2022-10-27T14:48:33.912Z,7.60
2022-10-27T14:51:03.293Z,12.73
2022-10-27T14:53:37.444Z,5.77
2022-10-27T14:56:12.575Z,8.30
2022-10-27T14:58:39.781Z,5.47
2022-10-27T15:01:39.453Z,11.93
2022-10-27T15:04:20.101Z,8.23
2022-10-27T15:06:51.475Z,5.47
2022-10-27T15:09:27.106Z,4.07
2022-10-27T15:11:54.339Z,4.70
2022-10-27T15:14:21.612Z,7.40
2022-10-27T15:16:48.690Z,6.63
2022-10-27T15:19:17.508Z,5.20
2022-10-27T15:21:46.297Z,11.00
2022-10-27T15:24:20.173Z,7.20
2022-10-27T15:26:48.208Z,5.07
2022-10-27T15:29:17.691Z,7.30
2022-10-27T15:31:45.451Z,6.87
2022-10-27T15:34:39.183Z,5.30
2022-10-27T15:37:41.982Z,6.00
2022-10-27T15:40:34.211Z,4.30
2022-10-27T15:43:02.749Z,6.90
2022-10-27T15:45:44.267Z,5.60
2022-10-27T15:48:38.260Z,5.47
2022-10-27T15:51:17.249Z,4.27
2022-10-27T15:53:52.613Z,4.30
2022-10-27T15:56:27.896Z,9.30
2022-10-27T15:59:23.860Z,4.70
2022-10-27T16:02:29.522Z,4.47
2022-10-27T16:04:56.620Z,5.27
2022-10-27T16:07:23.715Z,4.40
2022-10-27T16:09:51.034Z,4.47
2022-10-27T16:12:27.524Z,4.93
2022-10-27T16:14:58.469Z,3.80
2022-10-27T16:17:29.364Z,7.43
2022-10-27T16:20:02.133Z,4.37
2022-10-27T16:22:29.225Z,6.77
2022-10-27T16:24:56.434Z,8.10
2022-10-27T16:27:27.492Z,8.27
2022-10-27T16:30:02.552Z,4.43
2022-10-27T16:32:32.627Z,7.33
2022-10-27T16:35:00.037Z,4.37
2022-10-27T16:37:30.416Z,6.23
2022-10-27T16:39:57.708Z,7.27
2022-10-27T16:42:27.766Z,5.20
2022-10-27T16:44:54.969Z,5.13
2022-10-27T16:47:22.122Z,6.83
2022-10-27T16:49:49.578Z,4.70
2022-10-27T16:52:16.694Z,4.20
2022-10-27T16:54:43.826Z,5.40
2022-10-27T16:57:11.165Z,5.30
2022-10-27T16:59:38.315Z,6.20
2022-10-27T17:02:05.573Z,4.47
2022-10-27T17:04:33.364Z,5.10
2022-10-27T17:07:00.486Z,4.37
2022-10-27T17:09:27.567Z,4.93
2022-10-27T17:11:54.831Z,11.70
2022-10-27T17:14:22.079Z,4.53
2022-10-27T17:16:50.246Z,6.07
2022-10-27T17:19:20.988Z,6.73
2022-10-27T17:21:48.166Z,4.60
2022-10-27T17:24:15.526Z,6.10
2022-10-27T17:26:43.427Z,6.60
2022-10-27T17:29:10.596Z,3.97
2022-10-27T17:31:37.815Z,5.13
2022-10-27T17:34:05.205Z,4.73
2022-10-27T17:36:32.331Z,7.27
2022-10-27T17:39:00.460Z,4.77
2022-10-27T17:41:27.655Z,6.57
2022-10-27T17:43:55.351Z,5.13
2022-10-27T17:46:24.392Z,5.43
2022-10-27T17:48:57.339Z,4.37
2022-10-27T17:51:24.541Z,4.40
2022-10-27T17:53:58.484Z,5.03
2022-10-27T17:56:31.083Z,7.50
2022-10-27T17:58:58.680Z,6.23
2022-10-27T18:01:33.310Z,5.97
2022-10-27T18:04:06.342Z,4.67
2022-10-27T18:06:34.088Z,8.10
2022-10-27T18:09:02.557Z,4.07
2022-10-27T18:11:34.932Z,6.23
2022-10-27T18:14:08.428Z,7.30
2022-10-27T18:16:36.653Z,19.50
2022-10-27T18:19:09.426Z,4.90
2022-10-27T18:21:41.451Z,5.77
2022-10-27T18:24:09.954Z,4.63
2022-10-27T18:26:39.281Z,6.83
2022-10-27T18:29:07.205Z,6.33
2022-10-27T18:31:37.680Z,5.20
2022-10-27T18:34:12.032Z,9.33
2022-10-27T18:36:41.329Z,7.80
2022-10-27T18:39:14.092Z,7.10
2022-10-27T18:41:41.305Z,6.03
2022-10-27T18:44:08.670Z,7.27
2022-10-27T18:46:36.617Z,4.90
2022-10-27T18:49:04.279Z,8.03
2022-10-27T18:51:36.432Z,5.50
2022-10-27T18:54:06.350Z,6.93
2022-10-27T18:56:33.545Z,4.30
2022-10-27T18:59:04.282Z,5.03
2022-10-27T19:01:32.260Z,6.13
2022-10-27T19:04:03.061Z,5.10
2022-10-27T19:06:33.036Z,6.60
2022-10-27T19:09:01.049Z,7.73
2022-10-27T19:11:30.714Z,6.10
2022-10-27T19:13:59.635Z,4.97
2022-10-27T19:16:30.916Z,5.97
2022-10-27T19:18:59.390Z,11.00
2022-10-27T19:21:27.020Z,5.30
2022-10-27T19:24:00.258Z,10.63
2022-10-27T19:26:29.874Z,5.67
2022-10-27T19:28:58.393Z,5.23
2022-10-27T19:31:28.215Z,6.00
2022-10-27T19:33:57.073Z,12.07
2022-10-27T19:36:27.338Z,5.10
2022-10-27T19:38:54.643Z,5.87
2022-10-27T19:41:25.223Z,5.43
2022-10-27T19:43:54.638Z,5.50
2022-10-27T19:46:22.730Z,7.27
2022-10-27T19:48:54.208Z,5.47
2022-10-27T19:51:24.176Z,7.73
2022-10-27T19:53:51.584Z,5.33
2022-10-27T19:56:19.332Z,7.57
2022-10-27T19:58:58.226Z,4.57
2022-10-27T20:01:40.367Z,5.13
2022-10-27T20:04:11.030Z,4.57
2022-10-27T20:06:46.549Z,3.60
2022-10-27T20:09:15.615Z,6.40
2022-10-27T20:11:44.708Z,5.70
2022-10-27T20:14:13.363Z,32.10
2022-10-27T20:16:43.735Z,11.47
2022-10-27T20:19:16.461Z,11.80
2022-10-27T20:21:44.708Z,5.93
2022-10-27T20:24:12.699Z,5.80
2022-10-27T20:26:44.995Z,4.70
2022-10-27T20:29:12.528Z,5.07
2022-10-27T20:31:40.091Z,5.43
2022-10-27T20:34:10.555Z,5.50
2022-10-27T20:36:39.043Z,5.03
2022-10-27T20:39:08.104Z,4.73
2022-10-27T20:41:35.565Z,5.03
2022-10-27T20:44:03.210Z,7.10
2022-10-27T20:46:32.116Z,4.43
2022-10-27T20:48:59.893Z,6.23
2022-10-27T20:51:29.201Z,9.23
2022-10-27T20:53:56.663Z,7.37
2022-10-27T20:56:26.654Z,4.07
2022-10-27T20:58:53.927Z,4.83
2022-10-27T21:01:42.776Z,4.67
2022-10-27T21:04:18.896Z,6.10
2022-10-27T21:06:48.060Z,5.20
2022-10-27T21:09:17.327Z,4.90
2022-10-27T21:11:45.568Z,4.90
2022-10-27T21:14:12.877Z,6.07
2022-10-27T21:16:40.247Z,4.20
2022-10-27T21:19:09.804Z,5.20
2022-10-27T21:21:38.227Z,5.57
2022-10-27T21:24:06.481Z,4.77
2022-10-27T21:26:34.301Z,4.23
2022-10-27T21:29:02.257Z,7.80
2022-10-27T21:31:31.094Z,5.43
2022-10-27T21:34:05.219Z,4.40
2022-10-27T21:36:32.579Z,4.20
2022-10-27T21:38:59.916Z,3.87
2022-10-27T21:41:27.322Z,4.20
2022-10-27T21:43:56.024Z,5.30
2022-10-27T21:46:25.471Z,5.50
2022-10-27T21:48:57.152Z,6.23
2022-10-27T21:51:25.328Z,11.00
2022-10-27T21:54:10.725Z,4.70
2022-10-27T21:56:42.471Z,9.27
2022-10-27T21:59:10.621Z,7.50
2022-10-27T22:01:37.998Z,4.73
2022-10-27T22:04:05.779Z,6.90
2022-10-27T22:06:34.326Z,4.97
2022-10-27T22:09:02.186Z,4.87
2022-10-27T22:11:31.785Z,6.77
2022-10-27T22:13:59.103Z,6.30
2022-10-27T22:16:28.256Z,5.87
2022-10-27T22:19:03.425Z,6.20
2022-10-27T22:21:33.073Z,8.03
2022-10-27T22:24:00.392Z,4.67
2022-10-27T22:26:28.087Z,6.57
2022-10-27T22:28:55.390Z,5.30
2022-10-27T22:31:26.495Z,11.10
2022-10-27T22:33:54.954Z,9.70
2022-10-27T22:36:24.451Z,6.53
2022-10-27T22:38:53.882Z,10.80
2022-10-27T22:41:21.799Z,6.50
2022-10-27T22:43:49.206Z,10.63
2022-10-27T22:46:24.653Z,5.93
2022-10-27T22:48:52.284Z,4.43
2022-10-27T22:51:21.575Z,5.60
2022-10-27T22:53:49.943Z,6.10
2022-10-27T22:56:36.454Z,5.20
2022-10-27T22:59:08.527Z,6.17
2022-10-27T23:01:39.044Z,8.73
2022-10-27T23:04:08.396Z,4.80
2022-10-27T23:06:37.495Z,5.60
2022-10-27T23:09:18.985Z,5.37
2022-10-27T23:11:46.868Z,4.40
2022-10-27T23:14:15.369Z,5.17
2022-10-27T23:16:43.278Z,6.80
2022-10-27T23:19:11.980Z,5.93
2022-10-27T23:21:39.160Z,5.70
2022-10-27T23:24:06.796Z,4.90
2022-10-27T23:26:36.452Z,5.60
2022-10-27T23:29:06.593Z,8.30
2022-10-27T23:31:35.055Z,10.70
2022-10-27T23:34:04.194Z,9.13
2022-10-27T23:36:33.219Z,6.13
2022-10-27T23:39:00.821Z,5.53
2022-10-27T23:41:28.372Z,4.93
2022-10-27T23:43:57.542Z,6.80
2022-10-27T23:46:26.179Z,5.73
2022-10-27T23:48:53.505Z,5.73
2022-10-27T23:53:53.547Z,4.67
2022-10-27T23:56:20.651Z,5.50
2022-10-27T23:58:48.098Z,7.10
